Time;durP1;ratioP1;P1;durP2;ratioP2;P2;SDS_P1;SDS_P2;PMS_P1;PMS_P2;Temp;Humidity;BMP_temperature;BMP_pressure;BME280_temperature;BME280_humidity;BME280_pressure;Samples;Min_cycle;Max_cycle;Signal;HPM_P1;HPM_P2
2023/08/01 00:01:27;;;;;;;0.10;0.10;;;16.50;52.00;;;;;;5111187;28;20201;-56
2023/08/01 00:03:58;;;;;;;0.10;0.10;;;16.50;51.90;;;;;;5115717;28;20193;-58
2023/08/01 00:06:30;;;;;;;0.10;0.10;;;16.50;51.80;;;;;;5115951;28;20699;-54
2023/08/01 00:09:01;;;;;;;0.10;0.10;;;16.50;51.70;;;;;;5115854;28;20205;-62
2023/08/01 00:11:31;;;;;;;0.10;0.10;;;16.50;51.60;;;;;;5115911;28;20707;-59
2023/08/01 00:14:02;;;;;;;0.10;0.10;;;16.50;51.60;;;;;;5090950;28;20217;-58
2023/08/01 00:16:33;;;;;;;0.10;0.10;;;16.60;51.70;;;;;;5077415;28;20214;-58
2023/08/01 00:19:03;;;;;;;0.10;0.10;;;16.50;51.60;;;;;;5084749;28;20617;-54
2023/08/01 00:21:36;;;;;;;0.10;0.10;;;16.60;51.40;;;;;;5074788;28;20250;-54
2023/08/01 00:24:08;;;;;;;0.10;0.10;;;16.60;51.20;;;;;;5077875;28;20685;-61
2023/08/01 00:26:38;;;;;;;0.08;0.08;;;16.60;51.10;;;;;;5073940;28;20223;-51
2023/08/01 00:29:09;;;;;;;0.00;0.00;;;16.60;51.00;;;;;;5088757;28;20191;-52
2023/08/01 00:31:39;;;;;;;0.10;0.10;;;16.60;51.00;;;;;;5086711;28;20651;-53
2023/08/01 00:34:10;;;;;;;0.20;0.20;;;16.60;50.90;;;;;;5093588;28;20193;-53
2023/08/01 00:36:43;;;;;;;0.10;0.10;;;16.60;50.80;;;;;;5092844;28;20222;-53
2023/08/01 00:39:13;;;;;;;0.10;0.10;;;16.70;50.70;;;;;;5092510;28;20186;-52
2023/08/01 00:41:44;;;;;;;0.00;0.00;;;16.60;50.70;;;;;;5094167;28;20194;-53
2023/08/01 00:44:14;;;;;;;0.00;0.00;;;16.60;50.90;;;;;;5093936;28;20195;-54
2023/08/01 00:46:45;;;;;;;0.00;0.00;;;16.70;51.10;;;;;;5094761;28;20197;-57
2023/08/01 00:49:18;;;;;;;0.10;0.10;;;16.70;51.10;;;;;;5094066;28;20194;-58
2023/08/01 00:51:51;;;;;;;0.08;0.08;;;16.70;51.20;;;;;;5092964;28;20680;-58
2023/08/01 00:54:22;;;;;;;0.00;0.00;;;16.80;51.00;;;;;;5078137;28;20673;-56
2023/08/01 00:56:53;;;;;;;0.10;0.10;;;16.80;51.00;;;;;;5073725;28;20195;-57
2023/08/01 00:59:24;;;;;;;0.00;0.00;;;16.80;50.90;;;;;;5090228;28;20251;-57
2023/08/01 01:01:54;;;;;;;0.10;0.10;;;16.80;51.00;;;;;;5093487;28;20213;-58
2023/08/01 01:04:25;;;;;;;0.00;0.00;;;16.80;50.90;;;;;;5093164;28;21181;-53
2023/08/01 01:07:03;;;;;;;0.10;0.10;;;16.80;50.80;;;;;;5093096;28;20198;-57
2023/08/01 01:09:34;;;;;;;0.10;0.10;;;16.80;50.80;;;;;;5091991;28;20190;-58
2023/08/01 01:12:05;;;;;;;0.00;0.00;;;16.90;50.90;;;;;;5093819;28;20194;-58
2023/08/01 01:14:36;;;;;;;0.10;0.10;;;16.90;50.80;;;;;;5093196;28;20244;-55
2023/08/01 01:17:06;;;;;;;0.00;0.00;;;16.90;50.80;;;;;;5093097;28;20515;-60
2023/08/01 01:19:37;;;;;;;0.10;0.10;;;16.90;50.80;;;;;;5093648;28;20220;-54
2023/08/01 01:22:12;;;;;;;0.10;0.10;;;16.90;50.70;;;;;;5094077;28;20201;-56
2023/08/01 01:24:44;;;;;;;0.00;0.00;;;17.00;50.70;;;;;;5091728;28;20221;-56
2023/08/01 01:27:16;;;;;;;0.00;0.00;;;16.90;50.70;;;;;;5093816;28;20576;-54
2023/08/01 01:29:47;;;;;;;0.10;0.10;;;16.90;50.60;;;;;;5092889;28;20645;-54
2023/08/01 01:32:18;;;;;;;0.00;0.00;;;17.00;50.70;;;;;;5089941;28;20201;-59
2023/08/01 01:34:49;;;;;;;0.05;0.05;;;17.00;50.70;;;;;;5093354;28;20218;-52
2023/08/01 01:37:21;;;;;;;0.03;0.03;;;17.00;50.80;;;;;;5092691;28;20195;-56
2023/08/01 01:39:52;;;;;;;0.05;0.05;;;17.00;50.70;;;;;;5093177;28;20594;-54
2023/08/01 01:42:22;;;;;;;0.10;0.10;;;17.00;50.80;;;;;;5093394;28;20658;-57
2023/08/01 01:44:53;;;;;;;0.10;0.10;;;17.00;50.70;;;;;;5093140;28;20218;-58
2023/08/01 01:47:24;;;;;;;0.00;0.00;;;17.00;50.60;;;;;;5093375;28;20194;-58
2023/08/01 01:49:54;;;;;;;0.00;0.00;;;17.10;50.60;;;;;;5093234;28;20205;-57
2023/08/01 01:52:27;;;;;;;0.10;0.10;;;17.10;50.70;;;;;;5093219;28;20205;-56
2023/08/01 01:54:57;;;;;;;0.10;0.10;;;17.10;50.70;;;;;;5072899;28;20230;-51
2023/08/01 01:57:28;;;;;;;0.03;0.03;;;17.10;50.60;;;;;;5073214;28;20202;-54
2023/08/01 02:00:02;;;;;;;0.00;0.00;;;17.10;50.60;;;;;;5073456;28;20655;-58
2023/08/01 02:02:32;;;;;;;0.00;0.00;;;17.10;50.70;;;;;;5072616;28;20199;-58
2023/08/01 02:05:03;;;;;;;0.00;0.00;;;17.10;50.60;;;;;;5071869;28;20222;-61
2023/08/01 02:07:36;;;;;;;0.00;0.00;;;17.10;50.50;;;;;;5072254;28;20194;-59
2023/08/01 02:10:07;;;;;;;0.03;0.03;;;17.20;50.60;;;;;;5072486;28;20565;-53
2023/08/01 02:12:37;;;;;;;0.00;0.00;;;17.20;50.60;;;;;;5072814;28;20194;-55
2023/08/01 02:15:09;;;;;;;0.00;0.00;;;17.20;50.70;;;;;;5072580;28;20242;-58
2023/08/01 02:17:39;;;;;;;0.00;0.00;;;17.20;50.70;;;;;;5072324;28;20203;-58
2023/08/01 02:20:11;;;;;;;0.10;0.10;;;17.20;50.70;;;;;;5072306;28;20199;-48
2023/08/01 02:22:43;;;;;;;0.00;0.00;;;17.30;50.80;;;;;;5072299;28;20191;-56
2023/08/01 02:25:14;;;;;;;0.00;0.00;;;17.30;50.90;;;;;;5072699;28;20222;-56
2023/08/01 02:27:44;;;;;;;0.00;0.00;;;17.30;51.00;;;;;;5072707;28;20602;-57
2023/08/01 02:30:15;;;;;;;0.10;0.10;;;17.30;51.00;;;;;;5079143;28;20214;-59
2023/08/01 02:32:46;;;;;;;0.10;0.10;;;17.30;51.00;;;;;;5090992;28;20190;-60
2023/08/01 02:35:16;;;;;;;0.10;0.10;;;17.40;51.10;;;;;;5082411;28;20222;-58
2023/08/01 02:37:49;;;;;;;0.10;0.10;;;17.40;51.20;;;;;;5071258;28;20574;-59
2023/08/01 02:40:20;;;;;;;0.00;0.00;;;17.40;51.20;;;;;;5109404;28;20193;-53
2023/08/01 02:42:50;;;;;;;0.10;0.10;;;17.40;51.20;;;;;;5112609;28;20193;-53
2023/08/01 02:45:21;;;;;;;0.03;0.03;;;17.50;51.30;;;;;;5111821;28;20277;-59
2023/08/01 02:47:52;;;;;;;0.10;0.10;;;17.50;51.30;;;;;;5089477;28;20691;-56
2023/08/01 02:50:22;;;;;;;0.00;0.00;;;17.50;51.00;;;;;;5091508;28;20209;-61
2023/08/01 02:52:55;;;;;;;0.00;0.00;;;17.60;50.70;;;;;;5089220;28;20206;-55
2023/08/01 02:55:25;;;;;;;0.10;0.10;;;17.70;50.50;;;;;;5089927;28;20216;-55
2023/08/01 02:57:56;;;;;;;0.00;0.00;;;17.80;50.60;;;;;;5092448;28;20588;-60
2023/08/01 03:00:26;;;;;;;0.10;0.10;;;17.80;50.60;;;;;;5092134;28;20219;-59
2023/08/01 03:03:04;;;;;;;0.10;0.10;;;17.90;50.70;;;;;;5091675;28;20194;-59
2023/08/01 03:05:34;;;;;;;0.08;0.08;;;17.90;50.70;;;;;;5091023;28;20210;-58
2023/08/01 03:08:07;;;;;;;0.05;0.05;;;17.90;50.70;;;;;;5090894;28;20428;-58
2023/08/01 03:10:38;;;;;;;0.00;0.00;;;17.90;50.60;;;;;;5111143;28;20217;-59
2023/08/01 03:13:08;;;;;;;0.00;0.00;;;18.00;50.70;;;;;;5111867;28;20559;-60
2023/08/01 03:15:39;;;;;;;0.10;0.10;;;18.00;50.70;;;;;;5111337;28;20231;-60
2023/08/01 03:18:10;;;;;;;0.10;0.10;;;18.00;50.70;;;;;;5111507;28;20205;-54
2023/08/01 03:20:41;;;;;;;0.03;0.03;;;18.00;50.80;;;;;;5111352;28;20204;-56
2023/08/01 03:23:13;;;;;;;0.10;0.10;;;18.00;50.80;;;;;;5104176;28;20665;-55
2023/08/01 03:25:47;;;;;;;0.10;0.10;;;18.10;50.90;;;;;;5091259;28;20209;-58
2023/08/01 03:28:18;;;;;;;0.00;0.00;;;18.10;50.90;;;;;;5086627;28;20627;-56
2023/08/01 03:30:50;;;;;;;0.10;0.10;;;18.10;51.00;;;;;;5110858;28;20222;-55
2023/08/01 03:33:21;;;;;;;0.10;0.10;;;18.10;51.00;;;;;;5105043;28;20228;-59
2023/08/01 03:35:51;;;;;;;0.10;0.10;;;18.10;51.10;;;;;;5091668;28;20222;-58
2023/08/01 03:38:24;;;;;;;0.10;0.10;;;18.10;51.10;;;;;;5091998;28;20205;-58
2023/08/01 03:40:54;;;;;;;0.10;0.10;;;18.10;51.10;;;;;;5091750;28;20536;-55
2023/08/01 03:43:25;;;;;;;0.10;0.10;;;18.10;50.60;;;;;;5091291;28;20201;-58
2023/08/01 03:45:56;;;;;;;0.00;0.00;;;18.10;51.20;;;;;;5091476;28;20248;-60
2023/08/01 03:48:26;;;;;;;0.00;0.00;;;18.10;51.10;;;;;;5091617;28;20612;-50
2023/08/01 03:50:57;;;;;;;0.00;0.00;;;18.20;51.10;;;;;;5091507;28;20685;-61
2023/08/01 03:53:29;;;;;;;0.10;0.10;;;18.20;51.00;;;;;;5083390;28;20210;-61
2023/08/01 03:56:00;;;;;;;0.10;0.10;;;18.20;51.00;;;;;;5071339;28;20556;-59
2023/08/01 03:58:31;;;;;;;0.10;0.10;;;18.20;51.00;;;;;;5071473;28;20689;-60
2023/08/01 04:01:01;;;;;;;0.10;0.10;;;18.20;51.00;;;;;;5071353;28;20191;-60
2023/08/01 04:03:32;;;;;;;0.10;0.10;;;18.20;51.00;;;;;;5071675;28;20191;-56
2023/08/01 04:06:03;;;;;;;0.10;0.10;;;18.20;51.20;;;;;;5071158;28;20229;-57
2023/08/01 04:08:35;;;;;;;0.10;0.10;;;18.20;51.10;;;;;;5070966;28;20202;-59
2023/08/01 04:11:06;;;;;;;0.00;0.00;;;18.20;51.20;;;;;;5071144;28;20226;-50
2023/08/01 04:13:36;;;;;;;0.00;0.00;;;18.30;51.20;;;;;;5071269;28;20650;-53
2023/08/01 04:16:07;;;;;;;0.10;0.10;;;18.30;51.20;;;;;;5071104;28;20222;-53
2023/08/01 04:18:38;;;;;;;0.05;0.05;;;18.30;51.20;;;;;;5071243;28;20220;-57
2023/08/01 04:21:08;;;;;;;0.10;0.10;;;18.30;51.20;;;;;;5070765;28;20207;-52
2023/08/01 04:23:41;;;;;;;0.10;0.10;;;18.30;51.20;;;;;;5070284;28;20210;-49
2023/08/01 04:26:12;;;;;;;0.10;0.10;;;18.30;51.30;;;;;;5070967;28;20219;-57
2023/08/01 04:28:42;;;;;;;0.08;0.08;;;18.30;51.20;;;;;;5074895;28;20198;-54
2023/08/01 04:31:13;;;;;;;0.03;0.03;;;18.30;51.20;;;;;;5074422;28;20219;-61
2023/08/01 04:33:44;;;;;;;0.10;0.10;;;18.30;51.20;;;;;;5074982;28;20203;-56
2023/08/01 04:36:15;;;;;;;0.10;0.10;;;18.30;51.10;;;;;;5074211;28;20221;-55
2023/08/01 04:38:47;;;;;;;0.10;0.10;;;18.30;51.10;;;;;;5076279;28;20195;-53
2023/08/01 04:41:18;;;;;;;0.10;0.10;;;18.30;51.10;;;;;;5094910;28;20202;-55
2023/08/01 04:43:48;;;;;;;0.10;0.10;;;18.30;51.20;;;;;;5094948;28;20197;-61
2023/08/01 04:46:19;;;;;;;0.10;0.10;;;18.30;51.20;;;;;;5094610;28;20218;-56
2023/08/01 04:48:50;;;;;;;0.00;0.00;;;18.30;51.20;;;;;;5094540;28;20197;-55
2023/08/01 04:51:20;;;;;;;0.00;0.00;;;18.30;51.30;;;;;;5082232;28;20264;-51
2023/08/01 04:53:53;;;;;;;0.03;0.03;;;18.30;51.00;;;;;;5076054;28;20195;-55
2023/08/01 04:56:23;;;;;;;0.00;0.00;;;18.30;50.60;;;;;;5094180;28;20222;-54
2023/08/01 04:58:54;;;;;;;0.00;0.00;;;18.30;50.60;;;;;;5084847;28;20259;-56
2023/08/01 05:01:25;;;;;;;0.05;0.05;;;18.30;50.70;;;;;;5082898;28;20255;-51
2023/08/01 05:03:55;;;;;;;0.10;0.10;;;18.30;50.90;;;;;;5086266;28;20195;-58
2023/08/01 05:06:27;;;;;;;0.00;0.00;;;18.30;50.90;;;;;;5072683;28;20219;-58
2023/08/01 05:09:00;;;;;;;0.00;0.00;;;18.30;50.90;;;;;;5092666;28;20197;-54
2023/08/01 05:11:30;;;;;;;0.10;0.10;;;18.30;51.00;;;;;;5079854;28;20458;-58
2023/08/01 05:14:01;;;;;;;0.10;0.10;;;18.30;51.00;;;;;;5113424;28;20198;-58
2023/08/01 05:16:32;;;;;;;0.00;0.00;;;18.30;51.10;;;;;;5113655;28;20217;-52
2023/08/01 05:19:02;;;;;;;0.00;0.00;;;18.30;51.10;;;;;;5084339;28;20532;-50
2023/08/01 05:21:33;;;;;;;0.00;0.00;;;18.30;51.10;;;;;;5085580;28;20191;-59
2023/08/01 05:24:05;;;;;;;0.00;0.00;;;18.30;51.20;;;;;;5087069;28;20214;-54
2023/08/01 05:26:36;;;;;;;0.10;0.10;;;18.30;51.10;;;;;;5073637;28;20716;-50
2023/08/01 05:29:07;;;;;;;0.00;0.00;;;18.30;51.10;;;;;;5093094;28;20194;-56
2023/08/01 05:31:37;;;;;;;0.00;0.00;;;18.30;51.10;;;;;;5093431;28;20221;-54
2023/08/01 05:34:08;;;;;;;0.10;0.10;;;18.30;51.10;;;;;;5093370;28;20537;-60
2023/08/01 05:36:38;;;;;;;0.00;0.00;;;18.20;51.10;;;;;;5092474;28;20210;-56
2023/08/01 05:39:11;;;;;;;0.10;0.10;;;18.20;51.10;;;;;;5093449;28;20693;-55
2023/08/01 05:41:42;;;;;;;0.10;0.10;;;18.20;51.20;;;;;;5092593;28;20237;-54
2023/08/01 05:44:12;;;;;;;0.00;0.00;;;18.20;51.20;;;;;;5092958;28;20194;-58
2023/08/01 05:46:43;;;;;;;0.05;0.05;;;18.20;51.20;;;;;;5090427;28;20729;-60
2023/08/01 05:49:13;;;;;;;0.08;0.08;;;18.20;51.30;;;;;;5112197;28;20190;-58
2023/08/01 05:51:44;;;;;;;0.00;0.00;;;18.20;51.40;;;;;;5113142;28;20237;-59
2023/08/01 05:54:16;;;;;;;0.10;0.10;;;18.20;51.40;;;;;;5084015;28;20203;-56
2023/08/01 05:56:47;;;;;;;0.10;0.10;;;18.20;51.50;;;;;;5072814;28;20191;-60
2023/08/01 05:59:18;;;;;;;0.10;0.10;;;18.20;51.50;;;;;;5092710;28;20190;-59
2023/08/01 06:01:48;;;;;;;0.10;0.10;;;18.20;51.50;;;;;;5092053;28;20194;-56
2023/08/01 06:04:19;;;;;;;0.00;0.00;;;18.10;51.50;;;;;;5092948;28;20186;-52
2023/08/01 06:06:50;;;;;;;0.10;0.10;;;18.10;51.50;;;;;;5092332;28;20201;-54
2023/08/01 06:09:22;;;;;;;0.10;0.10;;;18.10;51.60;;;;;;5092426;28;20197;-48
2023/08/01 06:11:53;;;;;;;0.00;0.00;;;18.10;51.60;;;;;;5092851;28;20241;-51
2023/08/01 06:14:24;;;;;;;0.10;0.10;;;18.10;51.50;;;;;;5092286;28;20198;-50
2023/08/01 06:16:54;;;;;;;0.10;0.10;;;18.10;51.50;;;;;;5092882;28;20206;-56
2023/08/01 06:19:25;;;;;;;0.10;0.10;;;18.00;51.60;;;;;;5091854;28;20221;-52
2023/08/01 06:21:56;;;;;;;0.00;0.00;;;18.00;51.60;;;;;;5092303;28;20190;-62
2023/08/01 06:24:28;;;;;;;0.10;0.10;;;18.00;51.70;;;;;;5075895;28;20203;-50
2023/08/01 06:26:59;;;;;;;0.00;0.00;;;18.00;51.70;;;;;;5071992;28;20198;-56
2023/08/01 06:29:29;;;;;;;0.00;0.00;;;18.00;51.80;;;;;;5090897;28;20717;-57
2023/08/01 06:32:00;;;;;;;0.00;0.00;;;18.00;51.80;;;;;;5088080;28;20585;-51
2023/08/01 06:34:31;;;;;;;0.00;0.00;;;18.00;51.80;;;;;;5091832;28;20549;-57
2023/08/01 06:37:01;;;;;;;0.00;0.00;;;18.00;51.90;;;;;;5091350;28;20534;-61
2023/08/01 06:39:34;;;;;;;0.10;0.10;;;17.90;51.90;;;;;;5090731;28;20205;-51
2023/08/01 06:42:05;;;;;;;0.00;0.00;;;17.90;51.90;;;;;;5091563;28;20202;-56
2023/08/01 06:44:36;;;;;;;0.00;0.00;;;17.90;52.00;;;;;;5091732;28;20198;-55
2023/08/01 06:47:07;;;;;;;0.03;0.03;;;17.90;51.90;;;;;;5086378;28;20194;-56
2023/08/01 06:49:37;;;;;;;0.10;0.10;;;17.90;52.00;;;;;;5109768;28;20209;-60
2023/08/01 06:52:08;;;;;;;0.10;0.10;;;17.90;51.90;;;;;;5092742;28;20218;-52
2023/08/01 06:54:41;;;;;;;0.10;0.10;;;17.90;52.00;;;;;;5072604;28;20210;-54
2023/08/01 06:57:12;;;;;;;0.00;0.00;;;17.80;51.90;;;;;;5075923;28;20217;-52
2023/08/01 06:59:42;;;;;;;0.10;0.10;;;17.80;52.00;;;;;;5110082;28;20651;-51
2023/08/01 07:02:13;;;;;;;0.00;0.00;;;17.80;52.00;;;;;;5112005;28;20201;-55
2023/08/01 07:04:44;;;;;;;0.10;0.10;;;17.80;52.10;;;;;;5111368;28;20250;-50
2023/08/01 07:07:14;;;;;;;0.10;0.10;;;17.70;52.10;;;;;;5111406;28;20193;-52
2023/08/01 07:09:47;;;;;;;0.00;0.00;;;17.70;52.10;;;;;;5110084;28;20600;-55
2023/08/01 07:12:17;;;;;;;0.00;0.00;;;17.80;52.20;;;;;;5111758;28;20240;-51
2023/08/01 07:14:48;;;;;;;0.10;0.10;;;17.70;52.20;;;;;;5111488;28;20218;-59
2023/08/01 07:17:19;;;;;;;0.10;0.10;;;17.70;52.20;;;;;;5111002;28;20205;-52
2023/08/01 07:19:49;;;;;;;0.08;0.08;;;17.70;52.20;;;;;;5104675;28;20602;-57
2023/08/01 07:22:20;;;;;;;0.05;0.05;;;17.70;52.20;;;;;;5089597;28;20201;-50
2023/08/01 07:24:56;;;;;;;0.05;0.05;;;17.60;52.20;;;;;;5087117;28;20226;-48
2023/08/01 07:27:27;;;;;;;0.00;0.00;;;17.70;52.30;;;;;;5088010;28;20287;-57
2023/08/01 07:29:57;;;;;;;0.10;0.10;;;17.70;52.30;;;;;;5091279;28;20194;-49
2023/08/01 07:32:28;;;;;;;0.10;0.10;;;17.60;52.30;;;;;;5091565;28;20229;-52
2023/08/01 07:34:59;;;;;;;0.00;0.00;;;17.60;52.30;;;;;;5091393;28;20217;-54
2023/08/01 07:37:29;;;;;;;0.00;0.00;;;17.60;52.30;;;;;;5091722;28;20587;-46
2023/08/01 07:40:02;;;;;;;0.10;0.10;;;17.50;52.30;;;;;;5090856;28;20194;-53
2023/08/01 07:42:32;;;;;;;0.00;0.00;;;17.50;52.30;;;;;;5091713;28;20673;-51
2023/08/01 07:45:03;;;;;;;0.10;0.10;;;17.50;52.40;;;;;;5091587;28;20270;-60
2023/08/01 07:47:34;;;;;;;0.08;0.08;;;17.50;52.30;;;;;;5091519;28;20202;-54
2023/08/01 07:50:04;;;;;;;0.00;0.00;;;17.50;52.40;;;;;;5091472;28;20198;-55
2023/08/01 07:52:35;;;;;;;0.10;0.10;;;17.40;52.30;;;;;;5091502;28;20685;-56
2023/08/01 07:55:08;;;;;;;0.10;0.10;;;17.40;52.40;;;;;;5090811;28;20214;-57
2023/08/01 07:57:39;;;;;;;0.10;0.10;;;17.40;52.40;;;;;;5091488;28;20248;-50
2023/08/01 08:00:11;;;;;;;0.00;0.00;;;17.40;52.40;;;;;;5091269;28;20201;-59
2023/08/01 08:02:41;;;;;;;0.10;0.10;;;17.40;52.40;;;;;;5095068;28;20233;-59
2023/08/01 08:05:12;;;;;;;0.08;0.08;;;17.40;52.50;;;;;;5095792;28;20214;-52
2023/08/01 08:07:43;;;;;;;0.10;0.10;;;17.40;52.50;;;;;;5095409;28;20609;-50
2023/08/01 08:10:16;;;;;;;0.10;0.10;;;17.30;52.40;;;;;;5091917;28;20191;-58
2023/08/01 08:12:46;;;;;;;0.10;0.10;;;17.30;52.40;;;;;;5093262;28;20317;-58
2023/08/01 08:15:17;;;;;;;0.13;0.13;;;17.30;52.50;;;;;;5092312;28;20580;-54
2023/08/01 08:17:48;;;;;;;0.10;0.10;;;17.20;52.50;;;;;;5092982;28;20194;-58
2023/08/01 08:20:18;;;;;;;0.10;0.10;;;17.30;52.50;;;;;;5092474;28;20553;-53
2023/08/01 08:22:49;;;;;;;0.10;0.10;;;17.20;52.50;;;;;;5093187;28;20561;-60
2023/08/01 08:25:21;;;;;;;0.10;0.10;;;17.20;52.50;;;;;;5090819;28;20232;-57
2023/08/01 08:27:53;;;;;;;0.00;0.00;;;17.20;52.50;;;;;;5088243;28;20627;-54
2023/08/01 08:30:23;;;;;;;0.03;0.03;;;17.20;52.60;;;;;;5094247;28;20198;-54
2023/08/01 08:32:54;;;;;;;0.10;0.10;;;17.10;52.50;;;;;;5080581;28;20226;-57
2023/08/01 08:35:25;;;;;;;0.10;0.10;;;17.10;52.60;;;;;;5079856;28;20217;-52
2023/08/01 08:37:55;;;;;;;0.10;0.10;;;17.10;52.60;;;;;;5114701;28;20409;-51
2023/08/01 08:40:28;;;;;;;0.05;0.05;;;17.10;52.70;;;;;;5087707;28;20555;-58
2023/08/01 08:43:01;;;;;;;0.10;0.10;;;17.10;52.60;;;;;;5089859;28;20190;-46
2023/08/01 08:45:35;;;;;;;0.00;0.00;;;17.10;52.60;;;;;;5089320;28;20576;-53
2023/08/01 08:48:11;;;;;;;0.05;0.05;;;17.10;52.70;;;;;;5094125;28;20201;-55
2023/08/01 08:50:43;;;;;;;0.00;0.00;;;17.10;52.70;;;;;;5094576;28;20189;-58
2023/08/01 08:53:14;;;;;;;0.00;0.00;;;17.00;52.60;;;;;;5082058;28;20226;-51
2023/08/01 08:55:46;;;;;;;0.00;0.00;;;17.00;52.70;;;;;;5093888;28;20224;-53
2023/08/01 08:58:18;;;;;;;0.10;0.10;;;17.00;52.70;;;;;;5093297;28;20678;-54
2023/08/01 09:00:48;;;;;;;0.00;0.00;;;17.00;52.80;;;;;;5094124;28;20190;-51
2023/08/01 09:03:25;;;;;;;0.00;0.00;;;16.90;52.70;;;;;;5093997;28;20186;-52
2023/08/01 09:06:05;;;;;;;0.00;0.00;;;16.90;52.70;;;;;;5099045;28;20225;-52
2023/08/01 09:08:38;;;;;;;0.10;0.10;;;16.90;52.70;;;;;;5114550;28;20675;-50
2023/08/01 09:11:11;;;;;;;0.10;0.10;;;16.90;52.70;;;;;;5113511;28;20185;-45
2023/08/01 09:13:41;;;;;;;0.00;0.00;;;16.90;52.70;;;;;;5092622;28;20225;-46
2023/08/01 09:16:14;;;;;;;0.00;0.00;;;16.90;52.80;;;;;;5100750;28;20209;-49
2023/08/01 09:18:52;;;;;;;0.10;0.10;;;16.90;52.80;;;;;;5114639;28;20216;-47
2023/08/01 09:21:23;;;;;;;0.05;0.05;;;16.80;52.70;;;;;;5101513;28;20555;-48
2023/08/01 09:23:54;;;;;;;0.10;0.10;;;16.80;52.70;;;;;;5082393;28;20207;-50
2023/08/01 09:26:27;;;;;;;0.10;0.10;;;16.80;52.70;;;;;;5077814;28;20218;-56
2023/08/01 09:29:00;;;;;;;0.00;0.00;;;16.80;52.70;;;;;;5092707;28;20429;-50
2023/08/01 09:31:31;;;;;;;0.10;0.10;;;16.80;52.60;;;;;;5083274;28;20187;-59
2023/08/01 09:34:03;;;;;;;0.10;0.10;;;16.80;52.70;;;;;;5092799;28;20221;-49
2023/08/01 09:36:34;;;;;;;0.03;0.03;;;16.70;52.70;;;;;;5093407;28;20228;-54
2023/08/01 09:39:06;;;;;;;0.00;0.00;;;16.70;52.70;;;;;;5093010;28;20650;-55
2023/08/01 09:41:38;;;;;;;0.10;0.10;;;16.70;52.70;;;;;;5093742;28;20723;-52
2023/08/01 09:44:12;;;;;;;0.00;0.00;;;16.70;52.80;;;;;;5093450;28;20201;-46
2023/08/01 09:46:43;;;;;;;0.10;0.10;;;16.70;52.80;;;;;;5092647;28;20218;-59
2023/08/01 09:49:15;;;;;;;0.10;0.10;;;16.60;52.70;;;;;;5092713;28;20194;-59
2023/08/01 09:51:52;;;;;;;0.00;0.00;;;16.70;52.80;;;;;;5093335;28;20603;-53
2023/08/01 09:54:23;;;;;;;0.00;0.00;;;16.60;52.70;;;;;;5077469;28;20226;-55
2023/08/01 09:56:56;;;;;;;0.00;0.00;;;16.60;52.70;;;;;;5084173;28;20194;-53
2023/08/01 09:59:28;;;;;;;0.10;0.10;;;16.60;52.70;;;;;;5092834;28;20206;-59
2023/08/01 10:01:59;;;;;;;0.10;0.10;;;16.60;52.70;;;;;;5092431;28;20695;-52
2023/08/01 10:04:34;;;;;;;0.10;0.10;;;16.60;52.70;;;;;;5092997;28;20204;-54
2023/08/01 10:07:11;;;;;;;0.00;0.00;;;16.60;52.70;;;;;;5092358;28;20565;-50
2023/08/01 10:09:42;;;;;;;0.10;0.10;;;16.60;52.70;;;;;;5092172;28;20194;-58
2023/08/01 10:12:20;;;;;;;0.10;0.10;;;16.60;52.70;;;;;;5092394;28;20193;-55
2023/08/01 10:14:51;;;;;;;0.10;0.10;;;16.50;52.60;;;;;;5093043;28;20407;-56
2023/08/01 10:17:23;;;;;;;0.10;0.10;;;16.50;52.60;;;;;;5092425;28;20194;-53
2023/08/01 10:19:55;;;;;;;0.10;0.10;;;16.50;52.70;;;;;;5092995;28;20194;-49
2023/08/01 10:22:27;;;;;;;0.10;0.10;;;16.50;52.70;;;;;;5086731;28;20709;-59
2023/08/01 10:24:58;;;;;;;0.10;0.10;;;16.50;52.70;;;;;;5071173;28;20226;-52
2023/08/01 10:27:30;;;;;;;0.10;0.10;;;16.50;52.70;;;;;;5087262;28;20198;-58
2023/08/01 10:30:02;;;;;;;0.00;0.00;;;16.50;52.70;;;;;;5092554;28;20368;-59
2023/08/01 10:32:35;;;;;;;0.00;0.00;;;16.40;52.60;;;;;;5092412;28;20598;-53
2023/08/01 10:35:06;;;;;;;0.10;0.10;;;16.40;52.60;;;;;;5089517;28;20217;-53
2023/08/01 10:37:47;;;;;;;0.00;0.00;;;16.40;52.60;;;;;;5092146;28;20654;-50
2023/08/01 10:40:18;;;;;;;0.10;0.10;;;16.40;52.50;;;;;;5092067;28;20225;-49
2023/08/01 10:42:51;;;;;;;0.10;0.10;;;16.40;52.50;;;;;;5091709;28;20194;-60
2023/08/01 10:45:26;;;;;;;0.05;0.05;;;16.40;52.50;;;;;;5092346;28;20229;-53
2023/08/01 10:48:08;;;;;;;0.10;0.10;;;16.40;52.50;;;;;;5092466;28;20220;-49
2023/08/01 10:50:39;;;;;;;0.10;0.10;;;16.40;52.40;;;;;;5091900;28;20750;-53
2023/08/01 10:53:10;;;;;;;0.00;0.00;;;16.40;52.50;;;;;;5086338;28;20218;-52
2023/08/01 10:55:48;;;;;;;0.05;0.05;;;16.40;52.50;;;;;;5085199;28;20221;-47
2023/08/01 10:58:21;;;;;;;0.10;0.10;;;16.30;52.50;;;;;;5072958;28;20396;-48
2023/08/01 11:01:01;;;;;;;0.10;0.10;;;16.30;52.40;;;;;;5070971;28;20190;-46
2023/08/01 11:03:41;;;;;;;0.10;0.10;;;16.30;52.50;;;;;;5071815;28;20195;-50
2023/08/01 11:06:12;;;;;;;0.08;0.08;;;16.30;52.40;;;;;;5073474;28;20218;-63
2023/08/01 11:08:43;;;;;;;0.10;0.10;;;16.30;52.40;;;;;;5090451;28;20190;-49
2023/08/01 11:11:17;;;;;;;0.10;0.10;;;16.30;52.40;;;;;;5093341;28;20198;-49
2023/08/01 11:13:56;;;;;;;0.10;0.10;;;16.30;52.40;;;;;;5111801;28;20217;-47
2023/08/01 11:16:27;;;;;;;0.10;0.10;;;16.30;52.40;;;;;;5111780;28;20295;-53
2023/08/01 11:18:58;;;;;;;0.10;0.10;;;16.30;52.40;;;;;;5098999;28;20206;-56
2023/08/01 11:21:30;;;;;;;0.05;0.05;;;16.30;52.40;;;;;;5091678;28;20201;-56
2023/08/01 11:24:01;;;;;;;0.10;0.10;;;16.30;52.30;;;;;;5091656;28;20209;-53
2023/08/01 11:26:31;;;;;;;0.10;0.10;;;16.30;52.30;;;;;;5091897;28;20693;-58
2023/08/01 11:29:07;;;;;;;0.10;0.10;;;16.20;52.20;;;;;;5091903;28;20668;-55
2023/08/01 11:31:39;;;;;;;0.10;0.10;;;16.20;52.30;;;;;;5088465;28;20196;-52
2023/08/01 11:34:10;;;;;;;0.10;0.10;;;16.20;52.20;;;;;;5091606;28;20218;-55
2023/08/01 11:36:40;;;;;;;0.10;0.10;;;16.20;52.20;;;;;;5091479;28;20634;-61
2023/08/01 11:39:11;;;;;;;0.10;0.10;;;16.20;52.20;;;;;;5091687;28;20198;-59
2023/08/01 11:41:42;;;;;;;0.10;0.10;;;16.20;52.20;;;;;;5091915;28;20201;-55
2023/08/01 11:44:14;;;;;;;0.10;0.10;;;16.20;52.80;;;;;;5091737;28;20197;-56
2023/08/01 11:46:45;;;;;;;0.10;0.10;;;16.20;52.10;;;;;;5091844;28;20217;-56
2023/08/01 11:49:18;;;;;;;0.08;0.08;;;16.20;52.10;;;;;;5091872;28;20198;-57
2023/08/01 11:51:49;;;;;;;0.10;0.10;;;16.20;52.10;;;;;;5091673;28;20695;-49
2023/08/01 11:54:21;;;;;;;0.05;0.05;;;16.10;52.00;;;;;;5091105;28;20715;-56
2023/08/01 11:57:02;;;;;;;0.10;0.10;;;16.10;52.00;;;;;;5091590;28;20247;-52
2023/08/01 11:59:35;;;;;;;0.10;0.10;;;16.10;52.00;;;;;;5091782;28;20198;-57
2023/08/01 12:02:05;;;;;;;0.10;0.10;;;16.10;51.90;;;;;;5091586;28;20201;-53
2023/08/01 12:04:36;;;;;;;0.10;0.10;;;16.10;51.90;;;;;;5091951;28;20645;-52
2023/08/01 12:07:16;;;;;;;0.10;0.10;;;16.10;51.80;;;;;;5091699;28;20198;-54
2023/08/01 12:09:47;;;;;;;0.10;0.10;;;16.10;51.70;;;;;;5091527;28;20539;-54
2023/08/01 12:12:18;;;;;;;0.10;0.10;;;16.10;51.70;;;;;;5091625;28;20190;-57
2023/08/01 12:14:50;;;;;;;0.08;0.08;;;16.10;51.80;;;;;;5091309;28;20226;-51
2023/08/01 12:17:21;;;;;;;0.00;0.00;;;16.00;51.70;;;;;;5091684;28;20205;-50
2023/08/01 12:19:52;;;;;;;0.10;0.10;;;16.10;51.70;;;;;;5091401;28;20689;-55
2023/08/01 12:22:22;;;;;;;0.10;0.10;;;16.10;51.70;;;;;;5091463;28;20201;-58
2023/08/01 12:24:53;;;;;;;0.10;0.10;;;16.00;51.60;;;;;;5091267;28;20225;-52
2023/08/01 12:27:23;;;;;;;0.10;0.10;;;16.00;51.60;;;;;;5091294;28;20205;-49
2023/08/01 12:29:56;;;;;;;0.00;0.00;;;16.00;51.60;;;;;;5090971;28;20222;-55
2023/08/01 12:32:27;;;;;;;0.10;0.10;;;16.00;51.60;;;;;;5085456;28;20190;-52
2023/08/01 12:34:57;;;;;;;0.00;0.00;;;16.00;51.50;;;;;;5070724;28;20231;-57
2023/08/01 12:37:28;;;;;;;0.10;0.10;;;16.00;51.60;;;;;;5070481;28;20221;-49
2023/08/01 12:39:59;;;;;;;0.10;0.10;;;16.00;51.50;;;;;;5070466;28;20206;-49
2023/08/01 12:42:29;;;;;;;0.10;0.10;;;16.00;51.50;;;;;;5070675;28;20206;-50
2023/08/01 12:45:02;;;;;;;0.00;0.00;;;16.00;51.40;;;;;;5070626;28;20622;-55
2023/08/01 12:47:32;;;;;;;0.10;0.10;;;16.00;51.40;;;;;;5071337;28;20218;-55
2023/08/01 12:50:03;;;;;;;0.10;0.10;;;16.00;51.40;;;;;;5074828;28;20202;-56
2023/08/01 12:52:34;;;;;;;0.00;0.00;;;16.00;51.50;;;;;;5093432;28;20194;-60
2023/08/01 12:55:04;;;;;;;0.10;0.10;;;16.00;51.40;;;;;;5074154;28;20234;-55
2023/08/01 12:57:35;;;;;;;0.00;0.00;;;15.90;51.40;;;;;;5074266;28;20203;-53
2023/08/01 13:00:10;;;;;;;0.10;0.10;;;15.90;51.30;;;;;;5073987;28;20198;-51
2023/08/01 13:02:40;;;;;;;0.10;0.10;;;15.90;51.30;;;;;;5093080;28;20190;-50
2023/08/01 13:05:11;;;;;;;0.10;0.10;;;15.90;51.30;;;;;;5093955;28;20225;-59
2023/08/01 13:07:42;;;;;;;0.10;0.10;;;15.90;51.30;;;;;;5094275;28;20214;-54
2023/08/01 13:10:13;;;;;;;0.10;0.10;;;15.90;51.30;;;;;;5094056;28;20202;-53